Weather History for Chester, SC

Change the Weather History Date:

Saturday, February 23, 2013

  Actual Average (KUZA) Record (KUZA)
Temperature  
Mean Temperature 40 °F -  
Max Temperature 42 °F 57 °F 77 °F (1962)
Min Temperature 37 °F 37 °F 17 °F (1963)
Degree Days  
Heating Degree Days 26    
Moisture  
Dew Point 40 °F    
Average Humidity 100    
Maximum Humidity 100    
Minimum Humidity 100    
Precipitation  
Precipitation 0.50 in - - ()
Sea Level Pressure  
Sea Level Pressure 29.96 in    
Wind  
Wind Speed 6 mph (NNE)    
Max Wind Speed 10 mph    
Max Gust Speed -    
Visibility 4 miles    
Events Fog , Rain    
Averages and records for this station are not official NWS values.
T = Trace of Precipitation, MM = Missing Value Source: NWS Daily Summary

Daily Weather History Graph

Daily Weather History Graph

Search for Another Location

Airport:

Trip Planner

Search our weather history database for the weather conditions in past years. The results will help you decide how hot, cold, wet, or windy it might be!

Date:

Astronomy

Feb. 23, 2013 Rise Set
Actual Time 7:01 AM EST 6:15 PM EST
Civil Twilight 6:35 AM EST 6:41 PM EST
Nautical Twilight 6:06 AM EST 7:10 PM EST
Astronomical Twilight 5:37 AM EST 7:39 PM EST
Moon 4:26 PM EST (2/23) 5:19 AM EST (2/23)
Length of Visible Light 12h 05m
Length of Day
11h 14m
Waxing Gibbous, 95% of the Moon is Illuminated
Feb 23
Waxing Gibbous
Feb 25
Full
Mar 4
Last Quarter
Mar 11
New
Mar 19
First Quarter

Hourly Weather History & Observations

Time (EST) Temp. Windchill Dew Point Humidity Pressure Visibility Wind Dir Wind Speed Gust Speed Precip Events Conditions
12:15 AM 37.4 °F 32.1 °F 37.4 °F 100% 30.12 in 4.0 mi NNE 6.9 mph - N/A   Overcast
12:35 AM 37.4 °F 32.8 °F 37.4 °F 100% 30.12 in 3.0 mi North 5.8 mph - N/A   Overcast
12:55 AM 37.4 °F 33.8 °F 37.4 °F 100% 30.11 in 3.0 mi NNE 4.6 mph - N/A   Overcast
1:15 AM 37.4 °F 32.1 °F 37.4 °F 100% 30.10 in 3.0 mi North 6.9 mph - N/A   Overcast
1:35 AM 37.4 °F 31.4 °F 37.4 °F 100% 30.07 in 3.0 mi NNE 8.1 mph - N/A   Overcast
1:55 AM 37.4 °F 33.8 °F 37.4 °F 100% 30.07 in 3.0 mi NE 4.6 mph - N/A   Overcast
2:15 AM 37.4 °F 32.8 °F 37.4 °F 100% 30.06 in 3.0 mi ENE 5.8 mph - N/A   Overcast
2:35 AM 37.4 °F 32.1 °F 37.4 °F 100% 30.04 in 2.5 mi NE 6.9 mph - N/A   Drizzle
2:55 AM 37.4 °F 31.4 °F 37.4 °F 100% 30.03 in 3.0 mi NNE 8.1 mph - N/A   Overcast
3:15 AM 37.4 °F 31.4 °F 37.4 °F 100% 30.02 in 2.5 mi North 8.1 mph - N/A   Drizzle
3:35 AM 37.4 °F 32.1 °F 37.4 °F 100% 30.03 in 3.0 mi NNE 6.9 mph - N/A Rain Rain
3:55 AM 37.4 °F 32.8 °F 37.4 °F 100% 30.04 in 4.0 mi North 5.8 mph - 0.02 in Rain Rain
4:15 AM 37.4 °F 32.8 °F 37.4 °F 100% 30.02 in 5.0 mi NNE 5.8 mph - 0.03 in Rain Rain
4:35 AM 37.4 °F 30.3 °F 37.4 °F 100% 29.99 in 5.0 mi NE 10.4 mph - 0.05 in Rain Rain
4:55 AM 37.4 °F 31.4 °F 37.4 °F 100% 29.99 in 5.0 mi NNE 8.1 mph - 0.05 in Rain Light Rain
5:15 AM 37.4 °F 32.1 °F 37.4 °F 100% 29.99 in 5.0 mi NE 6.9 mph - 0.02 in Rain Light Rain
5:35 AM 37.4 °F 31.4 °F 37.4 °F 100% 29.98 in 5.0 mi NE 8.1 mph - 0.05 in Rain Rain
5:55 AM 37.4 °F 31.4 °F 37.4 °F 100% 29.97 in 4.0 mi NE 8.1 mph - 0.14 in Rain Rain
6:15 AM 37.4 °F 34.9 °F 37.4 °F 100% 29.98 in 3.0 mi NE 3.5 mph - 0.08 in Rain Rain
6:35 AM 37.4 °F 34.9 °F 37.4 °F 100% 29.98 in 4.0 mi NE 3.5 mph - 0.14 in Rain Rain
6:55 AM 37.4 °F 32.8 °F 37.4 °F 100% 29.98 in 3.0 mi NNE 5.8 mph - 0.23 in Rain Heavy Rain
7:15 AM 37.4 °F 31.4 °F 37.4 °F 100% 29.96 in 5.0 mi NE 8.1 mph - 0.05 in Rain Rain
7:35 AM 37.4 °F 30.8 °F 37.4 °F 100% 29.96 in 7.0 mi NE 9.2 mph - 0.06 in Rain Light Rain
7:55 AM 37.4 °F 32.1 °F 37.4 °F 100% 29.98 in 10.0 mi North 6.9 mph - 0.06 in Rain Light Rain
8:15 AM 39.2 °F 33.6 °F 39.2 °F 100% 29.99 in 10.0 mi North 8.1 mph - N/A   Overcast
8:55 AM 39.2 °F 34.2 °F 39.2 °F 100% 29.99 in 10.0 mi North 6.9 mph - N/A   Overcast
9:15 AM 39.2 °F 35.9 °F 39.2 °F 100% 30.00 in 10.0 mi North 4.6 mph - N/A   Overcast
9:55 AM 39.2 °F 35.0 °F 39.2 °F 100% 29.97 in 2.0 mi NE 5.8 mph - N/A   Drizzle
10:15 AM 41.0 °F 36.4 °F 41.0 °F 100% 29.97 in 3.0 mi NNE 6.9 mph - N/A   Drizzle
10:55 AM 41.0 °F 37.1 °F 41.0 °F 100% 29.97 in 2.5 mi NNE 5.8 mph - N/A   Drizzle
11:35 AM 41.0 °F 38.0 °F 41.0 °F 100% 29.96 in 2.0 mi NE 4.6 mph - N/A   Light Drizzle
11:55 AM 41.0 °F 37.1 °F 41.0 °F 100% 29.97 in 3.0 mi NE 5.8 mph - N/A   Overcast
12:15 PM 42.8 °F 39.3 °F 42.8 °F 100% 29.96 in 2.5 mi NNE 5.8 mph - N/A   Drizzle
12:35 PM 42.8 °F 38.6 °F 42.8 °F 100% 29.96 in 2.5 mi North 6.9 mph - N/A   Drizzle
12:55 PM 42.8 °F 39.3 °F 42.8 °F 100% 29.95 in 5.0 mi NNE 5.8 mph - N/A   Overcast
1:15 PM 42.8 °F 39.3 °F 42.8 °F 100% 29.93 in 4.0 mi NNE 5.8 mph - N/A   Light Drizzle
1:35 PM 42.8 °F 41.1 °F 42.8 °F 100% 29.92 in 7.0 mi NE 3.5 mph - N/A   Overcast
1:55 PM 42.8 °F 41.1 °F 42.8 °F 100% 29.92 in 10.0 mi NNE 3.5 mph - N/A   Overcast
2:15 PM 42.8 °F - 42.8 °F 100% 29.92 in 10.0 mi Calm Calm - N/A   Overcast
2:35 PM 42.8 °F - 42.8 °F 100% 29.92 in 10.0 mi Calm Calm - N/A   Overcast
2:55 PM 42.8 °F 38.6 °F 42.8 °F 100% 29.91 in 10.0 mi North 6.9 mph - N/A   Overcast
3:15 PM 42.8 °F 39.3 °F 42.8 °F 100% 29.90 in 10.0 mi North 5.8 mph - N/A   Overcast
3:55 PM 42.8 °F 39.3 °F 42.8 °F 100% 29.90 in 4.0 mi NNW 5.8 mph - N/A   Overcast
4:15 PM 42.8 °F 38.6 °F 42.8 °F 100% 29.90 in 2.0 mi NNW 6.9 mph - N/A   Overcast
4:35 PM 42.8 °F 40.1 °F 42.8 °F 100% 29.90 in 0.8 mi NNW 4.6 mph - N/A   Overcast
4:55 PM 42.8 °F 40.1 °F 42.8 °F 100% 29.89 in 1.0 mi NNW 4.6 mph - N/A   Overcast
5:15 PM 42.8 °F 41.1 °F 42.8 °F 100% 29.87 in 1.2 mi NNE 3.5 mph - N/A   Overcast
5:55 PM 42.8 °F 41.1 °F 42.8 °F 100% 29.87 in 2.5 mi NNW 3.5 mph - N/A   Overcast
6:15 PM 42.8 °F - 42.8 °F 100% 29.87 in 1.2 mi Calm Calm - N/A   Overcast
6:35 PM 42.8 °F - 42.8 °F 100% 29.88 in 1.2 mi Calm Calm - N/A   Overcast
6:55 PM 42.8 °F - 42.8 °F 100% 29.89 in 0.8 mi Calm Calm - N/A   Overcast
7:35 PM 42.8 °F - 42.8 °F 100% 29.89 in 0.5 mi Calm Calm - N/A Fog Fog
7:55 PM 42.8 °F - 42.8 °F 100% 29.89 in 0.5 mi Calm Calm - N/A Fog Fog
8:15 PM 42.8 °F - 42.8 °F 100% 29.89 in 0.5 mi Calm Calm - N/A Fog Fog
8:55 PM 42.8 °F 41.1 °F 42.8 °F 100% 29.87 in 0.2 mi SSE 3.5 mph - N/A Fog Fog
9:15 PM 42.8 °F 39.3 °F 42.8 °F 100% 29.86 in 0.2 mi SSE 5.8 mph - N/A Fog Fog
9:55 PM 42.8 °F - 42.8 °F 100% 29.87 in 0.5 mi Calm Calm - N/A Fog Fog
10:15 PM 42.8 °F - 42.8 °F 100% 29.87 in 0.5 mi Calm Calm - N/A Fog Fog
10:35 PM 42.8 °F 41.1 °F 42.8 °F 100% 29.89 in 0.5 mi SW 3.5 mph - N/A Fog Fog
10:55 PM 42.8 °F - 42.8 °F 100% 29.88 in 0.8 mi Calm Calm - N/A   Overcast
11:15 PM 42.8 °F - 42.8 °F 100% 29.87 in 0.8 mi Calm Calm - N/A   Overcast
11:35 PM 42.8 °F - 42.8 °F 100% 29.86 in 0.5 mi Calm Calm - N/A Fog Fog
11:55 PM 42.8 °F 41.1 °F 42.8 °F 100% 29.87 in 1.2 mi West 3.5 mph - N/A   Overcast